sensor_id;sensor_type;location;lat;lon;timestamp;temperature;humidity
66962;HTU21D;53897;51.126;5.868;2023-04-07T00:00:53;22.29;40.58
66962;HTU21D;53897;51.126;5.868;2023-04-07T00:03:19;22.28;40.59
66962;HTU21D;53897;51.126;5.868;2023-04-07T00:05:46;22.27;40.58
66962;HTU21D;53897;51.126;5.868;2023-04-07T00:08:12;22.26;40.59
66962;HTU21D;53897;51.126;5.868;2023-04-07T00:10:38;22.23;40.61
66962;HTU21D;53897;51.126;5.868;2023-04-07T00:13:04;22.24;40.62
66962;HTU21D;53897;51.126;5.868;2023-04-07T00:15:29;22.22;40.63
66962;HTU21D;53897;51.126;5.868;2023-04-07T00:17:55;22.21;40.61
66962;HTU21D;53897;51.126;5.868;2023-04-07T00:20:21;22.20;40.62
66962;HTU21D;53897;51.126;5.868;2023-04-07T00:22:47;22.18;40.62
66962;HTU21D;53897;51.126;5.868;2023-04-07T00:25:13;22.18;40.62
66962;HTU21D;53897;51.126;5.868;2023-04-07T00:27:39;22.17;40.62
66962;HTU21D;53897;51.126;5.868;2023-04-07T00:30:06;22.16;40.64
66962;HTU21D;53897;51.126;5.868;2023-04-07T00:32:32;22.13;40.63
66962;HTU21D;53897;51.126;5.868;2023-04-07T00:34:58;22.12;40.62
66962;HTU21D;53897;51.126;5.868;2023-04-07T00:37:24;22.11;40.62
66962;HTU21D;53897;51.126;5.868;2023-04-07T00:39:50;22.10;40.64
66962;HTU21D;53897;51.126;5.868;2023-04-07T00:42:17;22.09;40.60
66962;HTU21D;53897;51.126;5.868;2023-04-07T00:44:43;22.08;40.60
66962;HTU21D;53897;51.126;5.868;2023-04-07T00:47:09;22.07;40.60
66962;HTU21D;53897;51.126;5.868;2023-04-07T00:49:36;22.06;40.60
66962;HTU21D;53897;51.126;5.868;2023-04-07T00:52:03;22.05;40.62
66962;HTU21D;53897;51.126;5.868;2023-04-07T00:54:29;22.04;40.62
66962;HTU21D;53897;51.126;5.868;2023-04-07T00:56:56;22.03;40.60
66962;HTU21D;53897;51.126;5.868;2023-04-07T00:59:22;22.02;40.59
66962;HTU21D;53897;51.126;5.868;2023-04-07T01:02:02;22.01;40.59
66962;HTU21D;53897;51.126;5.868;2023-04-07T01:04:50;22.01;40.58
66962;HTU21D;53897;51.126;5.868;2023-04-07T01:07:34;21.99;40.56
66962;HTU21D;53897;51.126;5.868;2023-04-07T01:10:18;21.96;40.57
66962;HTU21D;53897;51.126;5.868;2023-04-07T01:13:05;21.97;40.55
66962;HTU21D;53897;51.126;5.868;2023-04-07T01:15:34;21.96;40.55
66962;HTU21D;53897;51.126;5.868;2023-04-07T01:18:13;21.94;40.54
66962;HTU21D;53897;51.126;5.868;2023-04-07T01:20:42;21.94;40.55
66962;HTU21D;53897;51.126;5.868;2023-04-07T01:23:26;21.95;40.54
66962;HTU21D;53897;51.126;5.868;2023-04-07T01:26:12;21.93;40.53
66962;HTU21D;53897;51.126;5.868;2023-04-07T01:31:41;21.91;40.52
66962;HTU21D;53897;51.126;5.868;2023-04-07T01:34:12;21.90;40.52
66962;HTU21D;53897;51.126;5.868;2023-04-07T01:36:39;21.88;40.52
66962;HTU21D;53897;51.126;5.868;2023-04-07T01:39:07;21.87;40.52
66962;HTU21D;53897;51.126;5.868;2023-04-07T01:41:35;21.87;40.51
66962;HTU21D;53897;51.126;5.868;2023-04-07T01:44:03;21.87;40.51
66962;HTU21D;53897;51.126;5.868;2023-04-07T01:46:29;21.85;40.52
66962;HTU21D;53897;51.126;5.868;2023-04-07T01:48:57;21.84;40.52
66962;HTU21D;53897;51.126;5.868;2023-04-07T01:51:25;21.82;40.53
66962;HTU21D;53897;51.126;5.868;2023-04-07T01:53:52;21.81;40.52
66962;HTU21D;53897;51.126;5.868;2023-04-07T01:56:18;21.81;40.51
66962;HTU21D;53897;51.126;5.868;2023-04-07T01:58:49;21.80;40.51
66962;HTU21D;53897;51.126;5.868;2023-04-07T02:01:17;21.79;40.51
66962;HTU21D;53897;51.126;5.868;2023-04-07T02:03:51;21.78;40.52
66962;HTU21D;53897;51.126;5.868;2023-04-07T02:06:22;21.78;40.51
66962;HTU21D;53897;51.126;5.868;2023-04-07T02:08:56;21.77;40.52
66962;HTU21D;53897;51.126;5.868;2023-04-07T02:11:25;21.76;40.52
66962;HTU21D;53897;51.126;5.868;2023-04-07T02:13:56;21.76;40.52
66962;HTU21D;53897;51.126;5.868;2023-04-07T02:16:27;21.75;40.51
66962;HTU21D;53897;51.126;5.868;2023-04-07T02:18:53;21.73;40.52
66962;HTU21D;53897;51.126;5.868;2023-04-07T02:21:20;21.72;40.53
66962;HTU21D;53897;51.126;5.868;2023-04-07T02:23:46;21.72;40.54
66962;HTU21D;53897;51.126;5.868;2023-04-07T02:26:12;21.72;40.54
66962;HTU21D;53897;51.126;5.868;2023-04-07T02:28:38;21.69;40.54
66962;HTU21D;53897;51.126;5.868;2023-04-07T02:31:03;21.70;40.55
66962;HTU21D;53897;51.126;5.868;2023-04-07T02:33:31;21.68;40.55
66962;HTU21D;53897;51.126;5.868;2023-04-07T02:35:56;21.68;40.55
66962;HTU21D;53897;51.126;5.868;2023-04-07T02:38:22;21.67;40.54
66962;HTU21D;53897;51.126;5.868;2023-04-07T02:40:48;21.67;40.55
66962;HTU21D;53897;51.126;5.868;2023-04-07T02:43:14;21.65;40.53
66962;HTU21D;53897;51.126;5.868;2023-04-07T02:45:42;21.64;40.55
66962;HTU21D;53897;51.126;5.868;2023-04-07T02:48:08;21.64;40.55
66962;HTU21D;53897;51.126;5.868;2023-04-07T02:50:35;21.63;40.55
66962;HTU21D;53897;51.126;5.868;2023-04-07T02:53:00;21.63;40.55
66962;HTU21D;53897;51.126;5.868;2023-04-07T02:55:26;21.61;40.57
66962;HTU21D;53897;51.126;5.868;2023-04-07T02:57:51;21.60;40.54
66962;HTU21D;53897;51.126;5.868;2023-04-07T03:00:37;21.59;40.55
66962;HTU21D;53897;51.126;5.868;2023-04-07T03:03:10;21.59;40.53
66962;HTU21D;53897;51.126;5.868;2023-04-07T03:05:38;21.57;40.52
66962;HTU21D;53897;51.126;5.868;2023-04-07T03:08:04;21.57;40.52
66962;HTU21D;53897;51.126;5.868;2023-04-07T03:10:30;21.58;40.50
66962;HTU21D;53897;51.126;5.868;2023-04-07T03:12:56;21.57;40.50
66962;HTU21D;53897;51.126;5.868;2023-04-07T03:15:22;21.55;40.49
66962;HTU21D;53897;51.126;5.868;2023-04-07T03:17:49;21.54;40.49
66962;HTU21D;53897;51.126;5.868;2023-04-07T03:20:15;21.53;40.47
66962;HTU21D;53897;51.126;5.868;2023-04-07T03:22:42;21.52;40.46
66962;HTU21D;53897;51.126;5.868;2023-04-07T03:25:14;21.52;40.46
66962;HTU21D;53897;51.126;5.868;2023-04-07T03:27:40;21.51;40.45
66962;HTU21D;53897;51.126;5.868;2023-04-07T03:30:09;21.50;40.44
66962;HTU21D;53897;51.126;5.868;2023-04-07T03:32:35;21.50;40.45
66962;HTU21D;53897;51.126;5.868;2023-04-07T03:35:00;21.49;40.46
66962;HTU21D;53897;51.126;5.868;2023-04-07T03:37:26;21.49;40.44
66962;HTU21D;53897;51.126;5.868;2023-04-07T03:39:53;21.48;40.43
66962;HTU21D;53897;51.126;5.868;2023-04-07T03:42:25;21.47;40.44
66962;HTU21D;53897;51.126;5.868;2023-04-07T03:44:56;21.47;40.43
66962;HTU21D;53897;51.126;5.868;2023-04-07T03:47:22;21.46;40.43
66962;HTU21D;53897;51.126;5.868;2023-04-07T03:49:53;21.44;40.42
66962;HTU21D;53897;51.126;5.868;2023-04-07T03:52:20;21.44;40.42
66962;HTU21D;53897;51.126;5.868;2023-04-07T03:54:50;21.43;40.42
66962;HTU21D;53897;51.126;5.868;2023-04-07T03:57:16;21.43;40.42
66962;HTU21D;53897;51.126;5.868;2023-04-07T03:59:46;21.43;40.44
66962;HTU21D;53897;51.126;5.868;2023-04-07T04:02:17;21.42;40.39
66962;HTU21D;53897;51.126;5.868;2023-04-07T04:04:44;21.42;40.39
66962;HTU21D;53897;51.126;5.868;2023-04-07T04:07:10;21.38;40.42
66962;HTU21D;53897;51.126;5.868;2023-04-07T04:09:43;21.39;40.49
66962;HTU21D;53897;51.126;5.868;2023-04-07T04:12:10;21.37;40.57
66962;HTU21D;53897;51.126;5.868;2023-04-07T04:14:42;21.34;40.63
66962;HTU21D;53897;51.126;5.868;2023-04-07T04:17:09;21.33;40.67
66962;HTU21D;53897;51.126;5.868;2023-04-07T04:19:40;21.33;40.69
66962;HTU21D;53897;51.126;5.868;2023-04-07T04:22:20;21.33;40.70
66962;HTU21D;53897;51.126;5.868;2023-04-07T04:24:52;21.32;40.71
66962;HTU21D;53897;51.126;5.868;2023-04-07T04:27:20;21.31;40.74
66962;HTU21D;53897;51.126;5.868;2023-04-07T04:29:51;21.31;40.77
66962;HTU21D;53897;51.126;5.868;2023-04-07T04:32:26;21.32;40.78
66962;HTU21D;53897;51.126;5.868;2023-04-07T04:34:52;21.32;40.82
66962;HTU21D;53897;51.126;5.868;2023-04-07T04:37:19;21.32;40.81
66962;HTU21D;53897;51.126;5.868;2023-04-07T04:39:45;21.32;40.78
66962;HTU21D;53897;51.126;5.868;2023-04-07T04:42:13;21.33;40.78
66962;HTU21D;53897;51.126;5.868;2023-04-07T04:44:39;21.30;40.84
66962;HTU21D;53897;51.126;5.868;2023-04-07T04:47:06;21.28;40.93
66962;HTU21D;53897;51.126;5.868;2023-04-07T04:49:32;21.23;41.02
66962;HTU21D;53897;51.126;5.868;2023-04-07T04:52:00;21.21;41.11
66962;HTU21D;53897;51.126;5.868;2023-04-07T04:54:27;21.17;41.20
66962;HTU21D;53897;51.126;5.868;2023-04-07T04:56:53;21.17;41.25
66962;HTU21D;53897;51.126;5.868;2023-04-07T04:59:21;21.18;41.21
66962;HTU21D;53897;51.126;5.868;2023-04-07T05:01:58;21.18;41.23
66962;HTU21D;53897;51.126;5.868;2023-04-07T05:04:24;21.18;41.26
66962;HTU21D;53897;51.126;5.868;2023-04-07T05:06:57;21.15;41.29
66962;HTU21D;53897;51.126;5.868;2023-04-07T05:09:26;21.16;41.32
66962;HTU21D;53897;51.126;5.868;2023-04-07T05:11:52;21.17;41.36
66962;HTU21D;53897;51.126;5.868;2023-04-07T05:14:18;21.16;41.38
66962;HTU21D;53897;51.126;5.868;2023-04-07T05:16:51;21.20;41.40
66962;HTU21D;53897;51.126;5.868;2023-04-07T05:19:21;21.22;41.44
66962;HTU21D;53897;51.126;5.868;2023-04-07T05:21:49;21.25;41.42
66962;HTU21D;53897;51.126;5.868;2023-04-07T05:24:16;21.28;41.44
66962;HTU21D;53897;51.126;5.868;2023-04-07T05:26:44;21.30;41.38
66962;HTU21D;53897;51.126;5.868;2023-04-07T05:29:10;21.34;41.36
66962;HTU21D;53897;51.126;5.868;2023-04-07T05:31:36;21.35;41.36
66962;HTU21D;53897;51.126;5.868;2023-04-07T05:34:06;21.38;41.35
66962;HTU21D;53897;51.126;5.868;2023-04-07T05:36:36;21.43;41.41
66962;HTU21D;53897;51.126;5.868;2023-04-07T05:39:02;21.45;41.53
66962;HTU21D;53897;51.126;5.868;2023-04-07T05:41:28;21.50;41.62
66962;HTU21D;53897;51.126;5.868;2023-04-07T05:43:54;21.54;41.68
66962;HTU21D;53897;51.126;5.868;2023-04-07T05:46:20;21.59;41.74
66962;HTU21D;53897;51.126;5.868;2023-04-07T05:48:51;21.62;41.74
66962;HTU21D;53897;51.126;5.868;2023-04-07T05:51:18;21.66;41.73
66962;HTU21D;53897;51.126;5.868;2023-04-07T05:53:43;21.69;41.71
66962;HTU21D;53897;51.126;5.868;2023-04-07T05:56:09;21.74;41.71
66962;HTU21D;53897;51.126;5.868;2023-04-07T05:58:43;21.78;41.77
66962;HTU21D;53897;51.126;5.868;2023-04-07T06:01:10;21.82;41.79
66962;HTU21D;53897;51.126;5.868;2023-04-07T06:03:36;21.85;41.79
66962;HTU21D;53897;51.126;5.868;2023-04-07T06:06:10;21.90;41.89
66962;HTU21D;53897;51.126;5.868;2023-04-07T06:08:36;21.93;41.93
66962;HTU21D;53897;51.126;5.868;2023-04-07T06:11:01;21.96;41.93
66962;HTU21D;53897;51.126;5.868;2023-04-07T06:13:27;22.01;41.87
66962;HTU21D;53897;51.126;5.868;2023-04-07T06:15:56;22.05;41.84
66962;HTU21D;53897;51.126;5.868;2023-04-07T06:18:22;22.08;41.78
66962;HTU21D;53897;51.126;5.868;2023-04-07T06:20:48;22.10;41.79
66962;HTU21D;53897;51.126;5.868;2023-04-07T06:23:13;22.12;41.74
66962;HTU21D;53897;51.126;5.868;2023-04-07T06:25:39;22.14;41.65
66962;HTU21D;53897;51.126;5.868;2023-04-07T06:28:05;22.18;41.62
66962;HTU21D;53897;51.126;5.868;2023-04-07T06:30:31;22.19;41.59
66962;HTU21D;53897;51.126;5.868;2023-04-07T06:32:58;22.21;41.56
66962;HTU21D;53897;51.126;5.868;2023-04-07T06:35:23;22.24;41.52
66962;HTU21D;53897;51.126;5.868;2023-04-07T06:37:51;22.24;41.49
66962;HTU21D;53897;51.126;5.868;2023-04-07T06:40:17;22.26;41.45
66962;HTU21D;53897;51.126;5.868;2023-04-07T06:42:42;22.29;41.41
66962;HTU21D;53897;51.126;5.868;2023-04-07T06:45:15;22.28;41.34
66962;HTU21D;53897;51.126;5.868;2023-04-07T06:47:41;22.29;41.31
66962;HTU21D;53897;51.126;5.868;2023-04-07T06:50:07;22.32;41.28
66962;HTU21D;53897;51.126;5.868;2023-04-07T06:52:32;22.32;41.33
66962;HTU21D;53897;51.126;5.868;2023-04-07T06:54:58;22.31;41.31
66962;HTU21D;53897;51.126;5.868;2023-04-07T06:57:24;22.32;41.38
66962;HTU21D;53897;51.126;5.868;2023-04-07T06:59:49;22.28;41.48
66962;HTU21D;53897;51.126;5.868;2023-04-07T07:02:15;22.28;41.52
66962;HTU21D;53897;51.126;5.868;2023-04-07T07:04:41;22.31;41.54
66962;HTU21D;53897;51.126;5.868;2023-04-07T07:07:06;22.32;41.53
66962;HTU21D;53897;51.126;5.868;2023-04-07T07:09:32;22.33;41.52
66962;HTU21D;53897;51.126;5.868;2023-04-07T07:11:58;22.33;41.52
66962;HTU21D;53897;51.126;5.868;2023-04-07T07:14:26;22.35;41.47
66962;HTU21D;53897;51.126;5.868;2023-04-07T07:16:52;22.36;41.37
66962;HTU21D;53897;51.126;5.868;2023-04-07T07:19:17;22.36;41.26
66962;HTU21D;53897;51.126;5.868;2023-04-07T07:21:43;22.37;41.33
66962;HTU21D;53897;51.126;5.868;2023-04-07T07:24:09;22.36;41.34
66962;HTU21D;53897;51.126;5.868;2023-04-07T07:26:35;22.37;41.34
66962;HTU21D;53897;51.126;5.868;2023-04-07T07:29:00;22.38;41.33
66962;HTU21D;53897;51.126;5.868;2023-04-07T07:31:26;22.39;41.34
66962;HTU21D;53897;51.126;5.868;2023-04-07T07:33:52;22.38;41.40
66962;HTU21D;53897;51.126;5.868;2023-04-07T07:36:17;22.41;41.36
66962;HTU21D;53897;51.126;5.868;2023-04-07T07:38:43;22.40;41.40
66962;HTU21D;53897;51.126;5.868;2023-04-07T07:41:09;22.41;41.45
66962;HTU21D;53897;51.126;5.868;2023-04-07T07:43:34;22.41;41.55
66962;HTU21D;53897;51.126;5.868;2023-04-07T07:46:02;22.42;41.57
66962;HTU21D;53897;51.126;5.868;2023-04-07T07:48:27;22.44;41.56
66962;HTU21D;53897;51.126;5.868;2023-04-07T07:50:53;22.44;41.56
66962;HTU21D;53897;51.126;5.868;2023-04-07T07:53:21;22.47;41.57
66962;HTU21D;53897;51.126;5.868;2023-04-07T07:55:47;22.46;41.56
66962;HTU21D;53897;51.126;5.868;2023-04-07T07:58:12;22.48;41.51
66962;HTU21D;53897;51.126;5.868;2023-04-07T08:00:38;22.48;41.48
66962;HTU21D;53897;51.126;5.868;2023-04-07T08:03:04;22.48;41.47
66962;HTU21D;53897;51.126;5.868;2023-04-07T08:05:29;22.49;41.49
66962;HTU21D;53897;51.126;5.868;2023-04-07T08:07:55;22.49;41.39
66962;HTU21D;53897;51.126;5.868;2023-04-07T08:10:21;22.48;41.31
66962;HTU21D;53897;51.126;5.868;2023-04-07T08:12:47;22.48;41.29
66962;HTU21D;53897;51.126;5.868;2023-04-07T08:15:13;22.50;41.30
66962;HTU21D;53897;51.126;5.868;2023-04-07T08:17:38;22.51;41.29
66962;HTU21D;53897;51.126;5.868;2023-04-07T08:20:05;22.52;41.26
66962;HTU21D;53897;51.126;5.868;2023-04-07T08:22:31;22.53;41.23
66962;HTU21D;53897;51.126;5.868;2023-04-07T08:24:57;22.54;41.18
66962;HTU21D;53897;51.126;5.868;2023-04-07T08:27:23;22.56;41.15
66962;HTU21D;53897;51.126;5.868;2023-04-07T08:29:59;22.56;41.10
66962;HTU21D;53897;51.126;5.868;2023-04-07T08:32:24;22.58;41.06
66962;HTU21D;53897;51.126;5.868;2023-04-07T08:34:50;22.58;41.04
66962;HTU21D;53897;51.126;5.868;2023-04-07T08:37:16;22.58;41.02
66962;HTU21D;53897;51.126;5.868;2023-04-07T08:39:41;22.61;40.98
66962;HTU21D;53897;51.126;5.868;2023-04-07T08:42:07;22.61;40.94
66962;HTU21D;53897;51.126;5.868;2023-04-07T08:44:37;22.62;40.88
66962;HTU21D;53897;51.126;5.868;2023-04-07T08:47:05;22.64;40.85
66962;HTU21D;53897;51.126;5.868;2023-04-07T08:49:32;22.64;40.84
66962;HTU21D;53897;51.126;5.868;2023-04-07T08:52:05;22.65;40.84
66962;HTU21D;53897;51.126;5.868;2023-04-07T08:54:33;22.64;40.81
66962;HTU21D;53897;51.126;5.868;2023-04-07T08:56:59;22.65;40.81
66962;HTU21D;53897;51.126;5.868;2023-04-07T08:59:26;22.66;40.81
66962;HTU21D;53897;51.126;5.868;2023-04-07T09:01:54;22.66;40.74
66962;HTU21D;53897;51.126;5.868;2023-04-07T09:04:21;22.66;40.74
66962;HTU21D;53897;51.126;5.868;2023-04-07T09:06:48;22.67;40.76
66962;HTU21D;53897;51.126;5.868;2023-04-07T09:09:14;22.66;40.77
66962;HTU21D;53897;51.126;5.868;2023-04-07T09:11:40;22.67;40.81
66962;HTU21D;53897;51.126;5.868;2023-04-07T09:14:06;22.67;40.88
66962;HTU21D;53897;51.126;5.868;2023-04-07T09:16:32;22.67;40.93
66962;HTU21D;53897;51.126;5.868;2023-04-07T09:18:58;22.69;41.07
66962;HTU21D;53897;51.126;5.868;2023-04-07T09:21:23;22.69;41.12
66962;HTU21D;53897;51.126;5.868;2023-04-07T09:23:49;22.69;41.16
66962;HTU21D;53897;51.126;5.868;2023-04-07T09:26:25;22.70;41.20
66962;HTU21D;53897;51.126;5.868;2023-04-07T09:28:57;22.70;41.26
66962;HTU21D;53897;51.126;5.868;2023-04-07T09:31:49;22.70;41.31
66962;HTU21D;53897;51.126;5.868;2023-04-07T09:36:49;22.71;41.27
66962;HTU21D;53897;51.126;5.868;2023-04-07T09:39:15;22.72;41.26
66962;HTU21D;53897;51.126;5.868;2023-04-07T09:41:41;22.73;41.25
66962;HTU21D;53897;51.126;5.868;2023-04-07T09:44:07;22.73;41.23
66962;HTU21D;53897;51.126;5.868;2023-04-07T09:46:32;22.72;41.20
66962;HTU21D;53897;51.126;5.868;2023-04-07T09:49:03;22.75;41.20
66962;HTU21D;53897;51.126;5.868;2023-04-07T09:51:32;22.75;41.18
66962;HTU21D;53897;51.126;5.868;2023-04-07T09:53:58;22.75;41.16
66962;HTU21D;53897;51.126;5.868;2023-04-07T09:56:25;22.77;41.13
66962;HTU21D;53897;51.126;5.868;2023-04-07T09:58:52;22.77;41.04
66962;HTU21D;53897;51.126;5.868;2023-04-07T10:01:19;22.75;41.04
66962;HTU21D;53897;51.126;5.868;2023-04-07T10:03:46;22.76;41.21
66962;HTU21D;53897;51.126;5.868;2023-04-07T10:06:12;22.75;41.37
66962;HTU21D;53897;51.126;5.868;2023-04-07T10:08:41;22.75;41.47
66962;HTU21D;53897;51.126;5.868;2023-04-07T10:11:08;22.76;41.53
66962;HTU21D;53897;51.126;5.868;2023-04-07T10:13:36;22.78;41.56
66962;HTU21D;53897;51.126;5.868;2023-04-07T10:16:06;22.79;41.61
66962;HTU21D;53897;51.126;5.868;2023-04-07T10:18:33;22.78;41.60
66962;HTU21D;53897;51.126;5.868;2023-04-07T10:21:01;22.79;41.56
66962;HTU21D;53897;51.126;5.868;2023-04-07T10:23:48;22.79;41.52
66962;HTU21D;53897;51.126;5.868;2023-04-07T10:26:22;22.80;41.48
66962;HTU21D;53897;51.126;5.868;2023-04-07T10:28:56;22.80;41.48
66962;HTU21D;53897;51.126;5.868;2023-04-07T10:31:24;22.80;41.43
66962;HTU21D;53897;51.126;5.868;2023-04-07T10:33:52;22.81;41.39
66962;HTU21D;53897;51.126;5.868;2023-04-07T10:36:19;22.81;41.36
66962;HTU21D;53897;51.126;5.868;2023-04-07T10:44:01;22.82;41.22
66962;HTU21D;53897;51.126;5.868;2023-04-07T10:49:25;22.81;41.20
66962;HTU21D;53897;51.126;5.868;2023-04-07T10:54:35;22.81;41.13
66962;HTU21D;53897;51.126;5.868;2023-04-07T10:59:33;22.79;41.09
66962;HTU21D;53897;51.126;5.868;2023-04-07T11:04:51;22.82;40.71
66962;HTU21D;53897;51.126;5.868;2023-04-07T11:07:17;22.81;40.65
66962;HTU21D;53897;51.126;5.868;2023-04-07T11:09:44;22.81;40.74
66962;HTU21D;53897;51.126;5.868;2023-04-07T11:12:21;22.80;40.81
66962;HTU21D;53897;51.126;5.868;2023-04-07T11:14:47;22.80;40.86
66962;HTU21D;53897;51.126;5.868;2023-04-07T11:17:14;22.81;40.88
66962;HTU21D;53897;51.126;5.868;2023-04-07T11:19:54;22.81;40.89
66962;HTU21D;53897;51.126;5.868;2023-04-07T11:22:20;22.81;40.91
66962;HTU21D;53897;51.126;5.868;2023-04-07T11:24:46;22.81;40.92
66962;HTU21D;53897;51.126;5.868;2023-04-07T11:27:12;22.80;40.94
66962;HTU21D;53897;51.126;5.868;2023-04-07T11:29:38;22.80;40.94
66962;HTU21D;53897;51.126;5.868;2023-04-07T11:32:05;22.81;40.94
66962;HTU21D;53897;51.126;5.868;2023-04-07T11:34:32;22.82;40.94
66962;HTU21D;53897;51.126;5.868;2023-04-07T11:37:21;22.80;40.94
66962;HTU21D;53897;51.126;5.868;2023-04-07T11:39:55;22.80;40.95
66962;HTU21D;53897;51.126;5.868;2023-04-07T11:42:34;22.81;40.95
66962;HTU21D;53897;51.126;5.868;2023-04-07T11:45:01;22.80;40.94
66962;HTU21D;53897;51.126;5.868;2023-04-07T11:47:34;22.81;40.96
66962;HTU21D;53897;51.126;5.868;2023-04-07T11:50:00;22.80;40.93
66962;HTU21D;53897;51.126;5.868;2023-04-07T11:52:26;22.80;40.88
66962;HTU21D;53897;51.126;5.868;2023-04-07T11:54:52;22.81;40.67
66962;HTU21D;53897;51.126;5.868;2023-04-07T11:57:26;22.81;40.55
66962;HTU21D;53897;51.126;5.868;2023-04-07T12:00:07;22.80;40.60
66962;HTU21D;53897;51.126;5.868;2023-04-07T12:02:34;22.80;40.72
66962;HTU21D;53897;51.126;5.868;2023-04-07T12:05:00;22.81;40.97
66962;HTU21D;53897;51.126;5.868;2023-04-07T12:07:26;22.80;41.09
66962;HTU21D;53897;51.126;5.868;2023-04-07T12:09:55;22.80;41.16
66962;HTU21D;53897;51.126;5.868;2023-04-07T12:12:28;22.81;41.26
66962;HTU21D;53897;51.126;5.868;2023-04-07T12:14:55;22.80;41.36
66962;HTU21D;53897;51.126;5.868;2023-04-07T12:17:22;22.81;41.44
66962;HTU21D;53897;51.126;5.868;2023-04-07T12:19:48;22.82;41.45
66962;HTU21D;53897;51.126;5.868;2023-04-07T12:22:13;22.83;41.46
66962;HTU21D;53897;51.126;5.868;2023-04-07T12:24:39;22.83;41.45
66962;HTU21D;53897;51.126;5.868;2023-04-07T12:27:05;22.83;41.42
66962;HTU21D;53897;51.126;5.868;2023-04-07T12:29:32;22.84;41.38
66962;HTU21D;53897;51.126;5.868;2023-04-07T12:31:58;22.84;41.36
66962;HTU21D;53897;51.126;5.868;2023-04-07T12:34:23;22.83;41.42
66962;HTU21D;53897;51.126;5.868;2023-04-07T12:36:49;22.83;41.44
66962;HTU21D;53897;51.126;5.868;2023-04-07T12:39:15;22.84;41.40
66962;HTU21D;53897;51.126;5.868;2023-04-07T12:41:41;22.85;41.34
66962;HTU21D;53897;51.126;5.868;2023-04-07T12:44:07;22.85;41.29
66962;HTU21D;53897;51.126;5.868;2023-04-07T12:46:32;22.84;41.29
66962;HTU21D;53897;51.126;5.868;2023-04-07T12:48:58;22.85;41.29
66962;HTU21D;53897;51.126;5.868;2023-04-07T12:51:25;22.84;41.29
66962;HTU21D;53897;51.126;5.868;2023-04-07T12:53:51;22.85;41.26
66962;HTU21D;53897;51.126;5.868;2023-04-07T12:56:19;22.86;41.25
66962;HTU21D;53897;51.126;5.868;2023-04-07T12:58:47;22.85;41.24
66962;HTU21D;53897;51.126;5.868;2023-04-07T13:01:12;22.86;41.23
66962;HTU21D;53897;51.126;5.868;2023-04-07T13:03:39;22.86;41.20
66962;HTU21D;53897;51.126;5.868;2023-04-07T13:06:05;22.87;41.19
66962;HTU21D;53897;51.126;5.868;2023-04-07T13:08:30;22.86;41.18
66962;HTU21D;53897;51.126;5.868;2023-04-07T13:10:56;22.87;41.18
66962;HTU21D;53897;51.126;5.868;2023-04-07T13:13:22;22.86;41.17
66962;HTU21D;53897;51.126;5.868;2023-04-07T13:15:48;22.86;41.16
66962;HTU21D;53897;51.126;5.868;2023-04-07T13:18:14;22.86;41.16
66962;HTU21D;53897;51.126;5.868;2023-04-07T13:20:40;22.86;41.15
66962;HTU21D;53897;51.126;5.868;2023-04-07T13:23:05;22.87;41.15
66962;HTU21D;53897;51.126;5.868;2023-04-07T13:25:31;22.87;41.13
66962;HTU21D;53897;51.126;5.868;2023-04-07T13:27:57;22.86;41.17
66962;HTU21D;53897;51.126;5.868;2023-04-07T13:30:24;22.87;41.16
66962;HTU21D;53897;51.126;5.868;2023-04-07T13:32:50;22.87;41.01
66962;HTU21D;53897;51.126;5.868;2023-04-07T13:35:17;22.86;40.94
66962;HTU21D;53897;51.126;5.868;2023-04-07T13:37:43;22.86;40.92
66962;HTU21D;53897;51.126;5.868;2023-04-07T13:40:09;22.86;40.93
66962;HTU21D;53897;51.126;5.868;2023-04-07T13:42:37;22.85;40.93
66962;HTU21D;53897;51.126;5.868;2023-04-07T13:45:03;22.86;40.96
66962;HTU21D;53897;51.126;5.868;2023-04-07T13:47:29;22.86;40.96
66962;HTU21D;53897;51.126;5.868;2023-04-07T13:50:02;22.86;40.95
66962;HTU21D;53897;51.126;5.868;2023-04-07T13:52:29;22.85;40.95
66962;HTU21D;53897;51.126;5.868;2023-04-07T13:55:00;22.84;40.93
66962;HTU21D;53897;51.126;5.868;2023-04-07T13:57:26;22.85;40.93
66962;HTU21D;53897;51.126;5.868;2023-04-07T13:59:52;22.84;40.91
66962;HTU21D;53897;51.126;5.868;2023-04-07T14:02:18;22.85;40.90
66962;HTU21D;53897;51.126;5.868;2023-04-07T14:04:44;22.83;40.90
66962;HTU21D;53897;51.126;5.868;2023-04-07T14:07:10;22.84;40.88
66962;HTU21D;53897;51.126;5.868;2023-04-07T14:09:36;22.84;40.88
66962;HTU21D;53897;51.126;5.868;2023-04-07T14:12:03;22.83;40.87
66962;HTU21D;53897;51.126;5.868;2023-04-07T14:14:29;22.84;40.85
66962;HTU21D;53897;51.126;5.868;2023-04-07T14:16:55;22.83;40.88
66962;HTU21D;53897;51.126;5.868;2023-04-07T14:19:22;22.83;40.61
66962;HTU21D;53897;51.126;5.868;2023-04-07T14:21:50;22.81;40.44
66962;HTU21D;53897;51.126;5.868;2023-04-07T14:24:16;22.80;40.41
66962;HTU21D;53897;51.126;5.868;2023-04-07T14:26:42;22.79;40.42
66962;HTU21D;53897;51.126;5.868;2023-04-07T14:29:10;22.76;40.47
66962;HTU21D;53897;51.126;5.868;2023-04-07T14:31:36;22.75;40.52
66962;HTU21D;53897;51.126;5.868;2023-04-07T14:34:05;22.72;40.59
66962;HTU21D;53897;51.126;5.868;2023-04-07T14:36:32;22.70;40.68
66962;HTU21D;53897;51.126;5.868;2023-04-07T14:38:59;22.69;40.74
66962;HTU21D;53897;51.126;5.868;2023-04-07T14:41:26;22.67;40.74
66962;HTU21D;53897;51.126;5.868;2023-04-07T14:43:52;22.68;40.63
66962;HTU21D;53897;51.126;5.868;2023-04-07T14:46:22;22.64;40.73
66962;HTU21D;53897;51.126;5.868;2023-04-07T14:48:48;22.63;40.79
66962;HTU21D;53897;51.126;5.868;2023-04-07T14:51:17;22.63;40.88
66962;HTU21D;53897;51.126;5.868;2023-04-07T14:53:43;22.61;40.95
66962;HTU21D;53897;51.126;5.868;2023-04-07T14:56:10;22.63;40.99
66962;HTU21D;53897;51.126;5.868;2023-04-07T14:58:36;22.60;41.03
66962;HTU21D;53897;51.126;5.868;2023-04-07T15:01:04;22.60;41.07
66962;HTU21D;53897;51.126;5.868;2023-04-07T15:03:30;22.60;41.12
66962;HTU21D;53897;51.126;5.868;2023-04-07T15:05:56;22.57;41.19
66962;HTU21D;53897;51.126;5.868;2023-04-07T15:08:22;22.57;41.21
66962;HTU21D;53897;51.126;5.868;2023-04-07T15:10:48;22.56;41.26
66962;HTU21D;53897;51.126;5.868;2023-04-07T15:13:13;22.56;41.24
66962;HTU21D;53897;51.126;5.868;2023-04-07T15:15:39;22.55;41.22
66962;HTU21D;53897;51.126;5.868;2023-04-07T15:18:05;22.54;41.27
66962;HTU21D;53897;51.126;5.868;2023-04-07T15:20:31;22.53;41.29
66962;HTU21D;53897;51.126;5.868;2023-04-07T15:22:57;22.53;41.39
66962;HTU21D;53897;51.126;5.868;2023-04-07T15:25:25;22.50;41.52
66962;HTU21D;53897;51.126;5.868;2023-04-07T15:27:51;22.51;41.59
66962;HTU21D;53897;51.126;5.868;2023-04-07T15:30:17;22.51;41.84
66962;HTU21D;53897;51.126;5.868;2023-04-07T15:32:56;22.53;42.39
66962;HTU21D;53897;51.126;5.868;2023-04-07T15:35:22;22.52;42.94
66962;HTU21D;53897;51.126;5.868;2023-04-07T15:37:47;22.53;43.26
66962;HTU21D;53897;51.126;5.868;2023-04-07T15:40:13;22.54;43.74